createdAt,value
2023-01-12T00:02:19.947Z,100.00
2023-01-12T00:07:23.677Z,100.00
2023-01-12T00:12:26.389Z,100.00
2023-01-12T00:17:29.045Z,100.00
2023-01-12T00:22:31.880Z,100.00
2023-01-12T00:27:34.562Z,100.00
2023-01-12T00:32:37.278Z,100.00
2023-01-12T00:37:39.978Z,100.00
2023-01-12T00:43:01.398Z,100.00
2023-01-12T00:48:04.186Z,100.00
2023-01-12T00:53:06.831Z,100.00
2023-01-12T00:58:09.472Z,100.00
2023-01-12T01:03:12.156Z,100.00
2023-01-12T01:08:15.932Z,100.00
2023-01-12T01:13:18.625Z,100.00
2023-01-12T01:18:21.852Z,100.00
2023-01-12T01:23:26.783Z,100.00
2023-01-12T01:28:29.601Z,100.00
2023-01-12T01:33:32.987Z,100.00
2023-01-12T01:38:37.256Z,100.00
2023-01-12T01:43:50.593Z,100.00
2023-01-12T01:48:53.989Z,100.00
2023-01-12T01:53:57.017Z,100.00
2023-01-12T01:59:13.921Z,100.00
2023-01-12T02:04:17.185Z,100.00
2023-01-12T02:09:24.106Z,100.00
2023-01-12T02:14:45.596Z,100.00
2023-01-12T02:20:36.970Z,100.00
2023-01-12T02:26:12.711Z,100.00
2023-01-12T02:31:34.373Z,100.00
2023-01-12T02:37:00.618Z,100.00
2023-01-12T02:42:31.366Z,100.00
2023-01-12T02:48:03.355Z,100.00
2023-01-12T02:53:18.028Z,100.00
2023-01-12T02:58:24.404Z,100.00
2023-01-12T03:03:27.324Z,100.00
2023-01-12T03:08:31.662Z,100.00
2023-01-12T03:13:37.202Z,100.00
2023-01-12T03:18:51.205Z,100.00
2023-01-12T03:24:03.670Z,100.00
2023-01-12T03:29:27.934Z,100.00
2023-01-12T03:34:33.289Z,100.00
2023-01-12T03:40:03.840Z,100.00
2023-01-12T03:45:40.103Z,100.00
2023-01-12T03:50:48.480Z,100.00
2023-01-12T03:55:57.295Z,100.00
2023-01-12T04:01:00.088Z,100.00
2023-01-12T04:06:03.103Z,100.00
2023-01-12T04:11:28.119Z,100.00
2023-01-12T04:16:30.803Z,100.00
2023-01-12T04:21:52.209Z,100.00
2023-01-12T04:26:55.132Z,100.00
2023-01-12T04:31:57.917Z,100.00
2023-01-12T04:37:02.178Z,100.00
2023-01-12T04:42:05.205Z,100.00
2023-01-12T04:47:07.958Z,100.00
2023-01-12T04:52:11.003Z,100.00
2023-01-12T04:57:13.668Z,100.00
2023-01-12T05:02:16.432Z,100.00
2023-01-12T05:07:19.144Z,100.00
2023-01-12T05:12:21.802Z,100.00
2023-01-12T05:17:24.556Z,100.00
2023-01-12T05:22:27.307Z,100.00
2023-01-12T05:27:29.975Z,100.00
2023-01-12T05:32:38.233Z,100.00
2023-01-12T05:37:40.933Z,100.00
2023-01-12T05:43:02.460Z,100.00
2023-01-12T05:48:05.339Z,100.00
2023-01-12T05:53:09.752Z,100.00
2023-01-12T05:58:12.499Z,100.00
2023-01-12T06:03:15.436Z,100.00
2023-01-12T06:08:18.124Z,100.00
2023-01-12T06:13:39.572Z,100.00
2023-01-12T06:18:42.264Z,100.00
2023-01-12T06:23:44.946Z,100.00
2023-01-12T06:28:47.659Z,100.00
2023-01-12T06:33:50.443Z,100.00
2023-01-12T06:38:53.586Z,100.00
2023-01-12T06:43:57.531Z,100.00
2023-01-12T06:49:00.290Z,100.00
2023-01-12T06:54:03.098Z,100.00
2023-01-12T06:59:05.901Z,100.00
2023-01-12T07:04:08.782Z,100.00
2023-01-12T07:09:12.331Z,100.00
2023-01-12T07:14:15.323Z,100.00
2023-01-12T07:19:18.168Z,100.00
2023-01-12T07:24:21.099Z,100.00
2023-01-12T07:29:27.437Z,100.00
2023-01-12T07:34:30.279Z,100.00
2023-01-12T07:39:33.026Z,100.00
2023-01-12T07:44:35.868Z,100.00
2023-01-12T07:49:38.618Z,100.00
2023-01-12T07:54:41.489Z,100.00
2023-01-12T07:59:44.410Z,100.00
2023-01-12T08:04:47.295Z,100.00
2023-01-12T08:09:50.045Z,100.00
2023-01-12T08:14:53.265Z,100.00
2023-01-12T08:20:02.211Z,99.93
2023-01-12T08:25:10.729Z,99.33
2023-01-12T08:30:17.229Z,99.22
2023-01-12T08:35:22.564Z,99.13
2023-01-12T08:40:45.351Z,98.80
2023-01-12T08:45:48.361Z,98.39
2023-01-12T08:50:51.131Z,97.95
2023-01-12T08:55:54.145Z,97.52
2023-01-12T09:00:57.114Z,97.23
2023-01-12T09:06:00.263Z,96.92
2023-01-12T09:11:04.537Z,96.79
2023-01-12T09:16:13.814Z,96.37
2023-01-12T09:21:19.971Z,95.74
2023-01-12T09:26:31.567Z,95.56
2023-01-12T09:31:36.533Z,94.64
2023-01-12T09:36:40.893Z,94.45
2023-01-12T09:42:09.094Z,94.10
2023-01-12T09:47:35.451Z,93.83
2023-01-12T09:52:41.020Z,93.35
2023-01-12T09:57:50.564Z,93.08
2023-01-12T10:03:11.296Z,93.25
2023-01-12T10:08:32.616Z,92.03
2023-01-12T10:14:27.900Z,91.62
2023-01-12T10:19:52.730Z,91.40
2023-01-12T10:24:55.738Z,91.32
2023-01-12T10:29:59.038Z,91.25
2023-01-12T10:35:12.333Z,91.12
2023-01-12T10:40:33.369Z,90.56
2023-01-12T10:46:05.608Z,89.55
2023-01-12T10:52:41.045Z,88.87
2023-01-12T10:57:45.114Z,88.88
2023-01-12T11:02:48.133Z,88.17
2023-01-12T11:07:51.235Z,87.20
2023-01-12T11:12:59.114Z,87.73
2023-01-12T11:18:28.171Z,87.30
2023-01-12T11:23:55.703Z,87.63
2023-01-12T11:29:21.778Z,87.88
2023-01-12T11:34:33.011Z,87.85
2023-01-12T11:39:35.940Z,87.95
2023-01-12T11:45:05.412Z,88.06
2023-01-12T11:50:21.048Z,88.01
2023-01-12T11:55:59.449Z,88.09
2023-01-12T12:01:21.025Z,87.95
2023-01-12T12:06:26.417Z,88.00
2023-01-12T12:11:57.913Z,87.57
2023-01-12T12:17:09.528Z,87.23
2023-01-12T12:22:23.364Z,86.57
2023-01-12T12:28:07.579Z,86.71
2023-01-12T12:33:42.731Z,86.21
2023-01-12T12:39:24.753Z,85.45
2023-01-12T12:45:11.393Z,84.98
2023-01-12T12:50:37.626Z,84.70
2023-01-12T12:55:41.635Z,84.63
2023-01-12T13:00:46.841Z,85.03
2023-01-12T13:06:29.911Z,84.52
2023-01-12T13:11:47.724Z,84.60
2023-01-12T13:16:53.707Z,84.45
2023-01-12T13:21:59.856Z,84.27
2023-01-12T13:27:02.536Z,84.35
2023-01-12T13:32:35.675Z,84.08
2023-01-12T13:37:48.691Z,83.72
2023-01-12T13:43:17.426Z,83.12
2023-01-12T13:48:21.452Z,83.31
2023-01-12T13:53:29.909Z,83.58
2023-01-12T13:58:42.821Z,83.28
2023-01-12T14:03:57.380Z,83.07
2023-01-12T14:09:14.873Z,82.83
2023-01-12T14:15:10.203Z,82.82
2023-01-12T14:20:17.095Z,82.92
2023-01-12T14:25:25.980Z,83.08
2023-01-12T14:30:29.558Z,82.88
2023-01-12T14:35:32.784Z,83.00
2023-01-12T14:40:35.524Z,82.76
2023-01-12T14:46:25.241Z,82.83
2023-01-12T14:51:38.512Z,82.97
2023-01-12T14:56:44.137Z,83.08
2023-01-12T15:01:47.090Z,83.04
2023-01-12T15:07:02.045Z,83.11
2023-01-12T15:12:29.609Z,83.09
2023-01-12T15:17:50.870Z,83.23
2023-01-12T15:23:12.104Z,83.39
2023-01-12T15:28:14.913Z,83.80
2023-01-12T15:33:18.056Z,83.99
2023-01-12T15:38:20.797Z,84.37
2023-01-12T15:43:23.530Z,84.70
2023-01-12T15:48:26.236Z,84.67
2023-01-12T15:53:28.951Z,84.93
2023-01-12T15:58:31.601Z,84.82
2023-01-12T16:04:00.561Z,84.90
2023-01-12T16:08:57.797Z,84.73
2023-01-12T16:14:00.614Z,84.78
2023-01-12T16:19:06.036Z,84.69
2023-01-12T16:24:09.564Z,84.32
2023-01-12T16:29:12.305Z,84.08
2023-01-12T16:34:18.316Z,83.87
2023-01-12T16:39:21.499Z,83.77
2023-01-12T16:44:24.180Z,83.50
2023-01-12T16:49:27.058Z,83.46
2023-01-12T16:54:29.988Z,83.34
2023-01-12T16:59:32.779Z,83.05
2023-01-12T17:04:37.669Z,82.85
2023-01-12T17:09:41.070Z,82.95
2023-01-12T17:14:44.779Z,82.85
2023-01-12T17:19:47.885Z,82.94
2023-01-12T17:24:51.292Z,82.83
2023-01-12T17:29:53.990Z,82.42
2023-01-12T17:34:56.885Z,82.32
2023-01-12T17:39:59.682Z,82.38
2023-01-12T17:45:03.962Z,82.46
2023-01-12T17:50:07.656Z,82.33
2023-01-12T17:55:10.442Z,82.28
2023-01-12T18:00:16.348Z,82.26
2023-01-12T18:05:19.117Z,82.31
2023-01-12T18:10:21.918Z,82.42
2023-01-12T18:15:24.598Z,82.16
2023-01-12T18:20:27.822Z,82.32
2023-01-12T18:25:30.511Z,82.16
2023-01-12T18:30:33.427Z,82.08
2023-01-12T18:35:36.641Z,82.10
2023-01-12T18:40:39.325Z,82.15
2023-01-12T18:45:42.040Z,81.87
2023-01-12T18:51:03.575Z,81.97
2023-01-12T18:56:06.968Z,81.82
2023-01-12T19:01:12.380Z,81.82
2023-01-12T19:06:24.269Z,81.92
2023-01-12T19:11:26.968Z,81.99
2023-01-12T19:16:48.151Z,82.06
2023-01-12T19:22:09.550Z,82.26
2023-01-12T19:27:32.317Z,82.41
2023-01-12T19:32:35.109Z,82.63
2023-01-12T19:37:38.223Z,82.55
2023-01-12T19:42:59.807Z,82.53
2023-01-12T19:48:03.689Z,82.90
2023-01-12T19:53:07.670Z,82.91
2023-01-12T19:58:11.142Z,83.03
2023-01-12T20:03:16.206Z,83.17
2023-01-12T20:08:21.335Z,83.40
2023-01-12T20:13:25.042Z,83.44
2023-01-12T20:18:27.712Z,83.80
2023-01-12T20:23:30.459Z,84.57
2023-01-12T20:28:33.358Z,85.04
2023-01-12T20:33:36.287Z,85.53
2023-01-12T20:38:40.929Z,85.76
2023-01-12T20:43:43.698Z,86.09
2023-01-12T20:48:46.402Z,86.30
2023-01-12T20:53:49.163Z,87.06
2023-01-12T20:58:51.954Z,87.30
2023-01-12T21:03:55.213Z,87.25
2023-01-12T21:08:58.028Z,87.01
2023-01-12T21:14:00.829Z,86.74
2023-01-12T21:19:03.835Z,86.47
2023-01-12T21:24:06.969Z,86.58
2023-01-12T21:29:09.625Z,86.47
2023-01-12T21:34:12.387Z,86.81
2023-01-12T21:39:15.197Z,86.86
2023-01-12T21:44:18.045Z,87.12
2023-01-12T21:49:20.701Z,87.00
2023-01-12T21:54:23.451Z,87.02
2023-01-12T21:59:26.111Z,87.00
2023-01-12T22:04:28.842Z,86.82
2023-01-12T22:09:31.762Z,86.67
2023-01-12T22:14:34.545Z,86.32
2023-01-12T22:19:39.405Z,86.21
2023-01-12T22:24:42.406Z,86.17
2023-01-12T22:29:45.106Z,86.09
2023-01-12T22:34:47.795Z,85.93
2023-01-12T22:39:50.490Z,85.91
2023-01-12T22:44:56.577Z,85.96
2023-01-12T22:49:59.216Z,85.91
2023-01-12T22:55:02.085Z,85.87
2023-01-12T23:00:05.373Z,85.83
2023-01-12T23:05:08.420Z,85.72
2023-01-12T23:10:11.635Z,85.81
2023-01-12T23:15:14.649Z,85.92
2023-01-12T23:20:17.628Z,85.82
2023-01-12T23:25:20.557Z,85.93
2023-01-12T23:30:24.085Z,86.01
2023-01-12T23:35:27.772Z,86.20
2023-01-12T23:40:34.278Z,86.33
2023-01-12T23:45:37.589Z,86.61
2023-01-12T23:50:40.755Z,86.88
2023-01-12T23:55:44.021Z,87.11
